createdAt,value
2023-01-17T00:00:53.515Z,2.53
2023-01-17T00:03:21.147Z,2.83
2023-01-17T00:06:07.895Z,2.57
2023-01-17T00:09:08.796Z,2.63
2023-01-17T00:19:44.015Z,2.40
2023-01-17T00:22:29.983Z,3.10
2023-01-17T00:25:15.076Z,2.03
2023-01-17T00:27:41.695Z,2.33
2023-01-17T00:30:11.011Z,2.70
2023-01-17T00:32:37.856Z,2.63
2023-01-17T00:35:06.731Z,2.17
2023-01-17T00:42:37.189Z,2.03
2023-01-17T00:45:23.183Z,2.00
2023-01-17T00:48:08.531Z,1.97
2023-01-17T00:50:56.028Z,1.90
2023-01-17T00:53:41.108Z,2.03
2023-01-17T00:56:26.786Z,2.20
2023-01-17T00:59:13.393Z,1.63
2023-01-17T01:01:59.072Z,2.33
2023-01-17T01:10:09.756Z,2.47
2023-01-17T01:12:57.957Z,2.60
2023-01-17T01:15:43.329Z,1.77
2023-01-17T01:18:30.055Z,2.47
2023-01-17T01:21:20.171Z,1.73
2023-01-17T01:24:08.107Z,2.03
2023-01-17T01:26:54.988Z,2.40
2023-01-17T01:34:41.988Z,2.00
2023-01-17T01:37:09.357Z,1.50
2023-01-17T01:39:36.794Z,2.33
2023-01-17T01:42:05.243Z,2.40
2023-01-17T01:44:48.065Z,1.90
2023-01-17T01:47:21.472Z,2.17
2023-01-17T01:49:51.608Z,2.37
2023-01-17T01:52:20.684Z,2.07
2023-01-17T01:54:52.294Z,2.43
2023-01-17T02:02:24.208Z,1.67
2023-01-17T02:04:53.835Z,2.17
2023-01-17T02:07:26.111Z,2.40
2023-01-17T02:09:54.541Z,2.00
2023-01-17T02:12:23.252Z,1.97
2023-01-17T02:14:50.788Z,1.80
2023-01-17T02:17:32.974Z,2.33
2023-01-17T02:25:35.575Z,1.80
2023-01-17T02:28:21.578Z,1.70
2023-01-17T02:30:54.984Z,2.10
2023-01-17T02:33:33.993Z,1.87
2023-01-17T02:36:09.667Z,1.40
2023-01-17T02:38:44.834Z,3.83
2023-01-17T02:41:17.109Z,2.07
2023-01-17T02:46:47.646Z,1.80
2023-01-17T02:49:16.907Z,1.60
2023-01-17T02:52:05.620Z,1.50
2023-01-17T02:54:49.675Z,1.73
2023-01-17T02:57:43.973Z,1.90
2023-01-17T03:00:22.060Z,3.10
2023-01-17T03:02:59.062Z,1.80
2023-01-17T03:05:33.292Z,1.70
2023-01-17T03:15:29.739Z,1.47
2023-01-17T03:18:01.794Z,1.70
2023-01-17T03:20:28.960Z,1.20
2023-01-17T03:22:56.260Z,1.40
2023-01-17T03:25:26.332Z,1.57
2023-01-17T03:27:53.628Z,1.80
2023-01-17T03:30:22.443Z,1.30
2023-01-17T03:32:51.924Z,1.07
2023-01-17T03:40:23.148Z,1.23
2023-01-17T03:42:50.733Z,1.10
2023-01-17T03:45:19.343Z,1.03
2023-01-17T03:47:46.589Z,2.00
2023-01-17T03:50:14.042Z,0.90
2023-01-17T03:52:41.291Z,0.90
2023-01-17T03:55:09.882Z,1.40
2023-01-17T03:57:38.472Z,1.40
2023-01-17T04:05:12.408Z,1.20
2023-01-17T04:07:40.572Z,0.90
2023-01-17T04:10:09.061Z,1.07
2023-01-17T04:12:36.755Z,1.27
2023-01-17T04:15:04.902Z,0.97
2023-01-17T04:17:32.711Z,1.00
2023-01-17T04:20:02.933Z,1.20
2023-01-17T04:25:23.227Z,1.13
2023-01-17T04:27:50.578Z,1.17
2023-01-17T04:30:18.005Z,0.97
2023-01-17T04:32:45.252Z,1.10
2023-01-17T04:35:13.239Z,1.00
2023-01-17T04:37:41.374Z,1.00
2023-01-17T04:40:10.363Z,1.03
2023-01-17T04:45:47.751Z,1.27
2023-01-17T04:48:15.118Z,0.87
2023-01-17T04:50:42.690Z,1.57
2023-01-17T04:53:09.949Z,1.17
2023-01-17T04:55:37.208Z,1.17
2023-01-17T04:58:05.008Z,1.40
2023-01-17T05:00:32.840Z,1.47
2023-01-17T05:05:43.293Z,1.07
2023-01-17T05:08:11.271Z,1.63
2023-01-17T05:10:39.289Z,1.57
2023-01-17T05:13:06.955Z,1.30
2023-01-17T05:15:34.855Z,1.57
2023-01-17T05:18:06.710Z,1.47
2023-01-17T05:20:35.008Z,1.33
2023-01-17T05:23:19.588Z,1.47
2023-01-17T05:30:51.523Z,1.30
2023-01-17T05:33:18.779Z,1.23
2023-01-17T05:35:46.133Z,1.17
2023-01-17T05:38:13.538Z,1.40
2023-01-17T05:40:41.308Z,2.17
2023-01-17T05:43:10.796Z,1.23
2023-01-17T05:45:38.433Z,1.57
2023-01-17T05:48:08.137Z,1.60
2023-01-17T05:55:41.778Z,1.80
2023-01-17T05:58:13.852Z,1.83
2023-01-17T06:00:41.272Z,1.40
2023-01-17T06:03:08.660Z,1.67
2023-01-17T06:05:36.238Z,1.80
2023-01-17T06:08:03.846Z,1.90
2023-01-17T06:10:31.370Z,2.10
2023-01-17T06:21:08.029Z,1.90
2023-01-17T06:23:35.588Z,1.77
2023-01-17T06:26:04.888Z,1.80
2023-01-17T06:28:32.658Z,2.53
2023-01-17T06:31:06.220Z,1.70
2023-01-17T06:33:33.400Z,1.90
2023-01-17T06:36:01.003Z,2.00
2023-01-17T06:44:37.885Z,1.37
2023-01-17T06:47:05.603Z,1.63
2023-01-17T06:49:33.166Z,1.87
2023-01-17T06:52:00.509Z,2.00
2023-01-17T06:54:28.015Z,2.27
2023-01-17T06:56:56.019Z,1.77
2023-01-17T06:59:23.438Z,1.57
2023-01-17T07:09:34.716Z,1.80
2023-01-17T07:12:03.321Z,2.03
2023-01-17T07:14:31.160Z,1.60
2023-01-17T07:17:00.785Z,1.53
2023-01-17T07:19:28.841Z,1.23
2023-01-17T07:21:56.670Z,1.87
2023-01-17T07:24:24.548Z,2.03
2023-01-17T07:26:54.592Z,1.50
2023-01-17T07:37:33.676Z,3.03
2023-01-17T07:40:02.095Z,1.73
2023-01-17T07:42:29.507Z,1.60
2023-01-17T07:44:57.321Z,1.87
2023-01-17T07:47:24.502Z,1.40
2023-01-17T07:49:51.697Z,1.40
2023-01-17T07:52:19.424Z,1.33
2023-01-17T07:54:47.630Z,1.80
2023-01-17T08:00:13.511Z,1.43
2023-01-17T08:02:41.488Z,1.83
2023-01-17T08:05:09.457Z,2.07
2023-01-17T08:07:40.429Z,2.40
2023-01-17T08:10:12.499Z,1.97
2023-01-17T08:12:40.884Z,1.67
2023-01-17T08:15:11.905Z,2.20
2023-01-17T08:17:39.228Z,2.50
2023-01-17T08:25:12.821Z,2.43
2023-01-17T08:27:41.456Z,1.73
2023-01-17T08:30:10.349Z,1.70
2023-01-17T08:32:40.146Z,1.63
2023-01-17T08:35:09.635Z,1.70
2023-01-17T08:37:38.337Z,1.50
2023-01-17T08:40:07.440Z,1.70
2023-01-17T08:48:15.109Z,1.43
2023-01-17T08:50:42.599Z,1.47
2023-01-17T08:53:10.424Z,1.50
2023-01-17T08:55:40.469Z,1.50
2023-01-17T08:58:08.543Z,1.90
2023-01-17T09:00:35.933Z,1.93
2023-01-17T09:03:03.277Z,2.03
2023-01-17T09:08:26.132Z,1.87
2023-01-17T09:10:53.484Z,1.87
2023-01-17T09:13:23.679Z,2.10
2023-01-17T09:15:51.530Z,2.00
2023-01-17T09:18:19.032Z,1.80
2023-01-17T09:20:46.159Z,1.50
2023-01-17T09:23:13.750Z,1.50
2023-01-17T09:28:54.865Z,1.90
2023-01-17T09:31:23.624Z,1.70
2023-01-17T09:33:52.061Z,1.53
2023-01-17T09:36:20.052Z,1.83
2023-01-17T09:38:47.754Z,2.03
2023-01-17T09:41:27.072Z,1.80
2023-01-17T09:44:02.470Z,1.50
2023-01-17T09:46:32.969Z,1.27
2023-01-17T09:55:53.998Z,1.43
2023-01-17T09:58:23.905Z,1.80
2023-01-17T10:01:04.703Z,1.33
2023-01-17T10:03:58.060Z,1.30
2023-01-17T10:06:49.488Z,1.40
2023-01-17T10:09:30.519Z,1.47
2023-01-17T10:12:14.410Z,1.50
2023-01-17T10:20:02.420Z,1.20
2023-01-17T10:22:43.350Z,1.10
2023-01-17T10:25:37.382Z,1.23
2023-01-17T10:28:11.660Z,1.10
2023-01-17T10:30:44.751Z,1.50
2023-01-17T10:33:17.208Z,1.30
2023-01-17T10:41:34.382Z,1.10
2023-01-17T10:44:12.134Z,1.20
2023-01-17T10:46:43.778Z,0.90
2023-01-17T10:49:18.597Z,0.90
2023-01-17T10:52:13.829Z,1.20
2023-01-17T10:54:59.890Z,1.63
2023-01-17T10:57:28.539Z,0.97
2023-01-17T11:02:39.602Z,1.10
2023-01-17T11:05:19.591Z,1.50
2023-01-17T11:07:59.118Z,1.00
2023-01-17T11:10:41.759Z,0.80
2023-01-17T11:13:25.334Z,1.00
2023-01-17T11:15:56.960Z,0.80
2023-01-17T11:18:28.941Z,1.00
2023-01-17T11:23:34.558Z,1.07
2023-01-17T11:26:07.243Z,1.53
2023-01-17T11:28:37.724Z,1.47
2023-01-17T11:31:09.305Z,1.17
2023-01-17T11:33:50.031Z,0.90
2023-01-17T11:36:22.293Z,0.97
2023-01-17T11:39:02.529Z,0.83
2023-01-17T11:41:34.599Z,0.90
2023-01-17T11:49:23.861Z,0.70
2023-01-17T11:51:55.757Z,1.10
2023-01-17T11:54:28.793Z,1.00
2023-01-17T11:57:02.480Z,0.90
2023-01-17T11:59:33.127Z,0.93
2023-01-17T12:02:42.861Z,0.80
2023-01-17T12:05:27.269Z,0.97
2023-01-17T12:11:12.238Z,0.80
2023-01-17T12:14:01.903Z,0.60
2023-01-17T12:16:45.277Z,1.10
2023-01-17T12:19:41.442Z,0.90
2023-01-17T12:22:24.724Z,0.90
2023-01-17T12:25:07.758Z,0.73
2023-01-17T12:27:48.689Z,1.00
2023-01-17T12:37:45.357Z,0.97
2023-01-17T12:40:22.044Z,0.90
2023-01-17T12:42:54.514Z,1.13
2023-01-17T12:45:31.624Z,1.00
2023-01-17T12:48:04.261Z,1.00
2023-01-17T12:50:37.411Z,1.00
2023-01-17T12:53:18.275Z,0.70
2023-01-17T12:55:55.609Z,0.70
2023-01-17T13:03:37.155Z,0.80
2023-01-17T13:06:09.465Z,1.17
2023-01-17T13:08:42.005Z,1.00
2023-01-17T13:11:16.730Z,1.30
2023-01-17T13:13:44.583Z,1.57
2023-01-17T13:16:16.419Z,1.60
2023-01-17T13:18:47.073Z,1.17
2023-01-17T13:29:00.825Z,1.30
2023-01-17T13:31:40.139Z,1.27
2023-01-17T13:34:35.858Z,1.07
2023-01-17T13:37:30.323Z,1.20
2023-01-17T13:40:19.051Z,1.00
2023-01-17T13:42:54.915Z,1.20
2023-01-17T13:45:27.995Z,1.10
2023-01-17T13:53:46.289Z,1.70
2023-01-17T13:56:32.420Z,1.43
2023-01-17T13:59:27.292Z,1.50
2023-01-17T14:01:58.809Z,1.23
2023-01-17T14:05:05.841Z,1.10
2023-01-17T14:07:35.937Z,1.40
2023-01-17T14:15:54.436Z,1.60
2023-01-17T14:18:33.711Z,2.17
2023-01-17T14:21:08.409Z,1.70
2023-01-17T14:23:48.800Z,1.63
2023-01-17T14:26:37.065Z,1.37
2023-01-17T14:29:40.737Z,1.13
2023-01-17T14:32:14.605Z,1.70
2023-01-17T14:39:51.831Z,1.63
2023-01-17T14:42:25.534Z,1.57
2023-01-17T14:44:57.039Z,1.33
2023-01-17T14:47:25.121Z,1.23
2023-01-17T14:50:11.461Z,1.87
2023-01-17T14:52:38.766Z,1.40
2023-01-17T14:55:16.273Z,1.40
2023-01-17T15:03:43.716Z,1.40
2023-01-17T15:06:13.729Z,1.40
2023-01-17T15:08:42.058Z,1.40
2023-01-17T15:11:16.128Z,1.43
2023-01-17T15:13:49.160Z,1.23
2023-01-17T15:16:23.908Z,1.13
2023-01-17T15:18:53.969Z,1.43
2023-01-17T15:21:24.229Z,1.33
2023-01-17T15:28:52.753Z,1.33
2023-01-17T15:31:25.132Z,1.73
2023-01-17T15:33:57.052Z,1.67
2023-01-17T15:36:29.852Z,1.47
2023-01-17T15:38:59.952Z,1.30
2023-01-17T15:41:30.988Z,1.80
2023-01-17T15:43:59.531Z,1.27
2023-01-17T15:54:34.310Z,1.47
2023-01-17T15:57:04.084Z,1.63
2023-01-17T15:59:41.471Z,1.40
2023-01-17T16:02:25.538Z,1.30
2023-01-17T16:04:55.282Z,1.67
2023-01-17T16:07:31.431Z,1.23
2023-01-17T16:10:09.405Z,1.37
2023-01-17T16:20:37.097Z,1.70
2023-01-17T16:23:05.268Z,1.50
2023-01-17T16:25:34.408Z,1.80
2023-01-17T16:28:03.077Z,2.17
2023-01-17T16:30:31.502Z,1.67
2023-01-17T16:32:59.371Z,1.90
2023-01-17T16:35:28.873Z,1.97
2023-01-17T16:43:56.451Z,1.50
2023-01-17T16:46:25.720Z,1.87
2023-01-17T16:48:55.163Z,2.10
2023-01-17T16:51:22.874Z,1.90
2023-01-17T16:53:50.368Z,1.60
2023-01-17T16:56:19.127Z,1.63
2023-01-17T16:58:48.120Z,1.50
2023-01-17T17:06:43.931Z,1.43
2023-01-17T17:09:11.800Z,1.47
2023-01-17T17:11:42.107Z,1.60
2023-01-17T17:14:14.550Z,1.67
2023-01-17T17:16:44.367Z,1.10
2023-01-17T17:19:11.709Z,1.27
2023-01-17T17:21:40.979Z,1.57
2023-01-17T17:27:05.819Z,1.37
2023-01-17T17:29:35.424Z,1.17
2023-01-17T17:32:03.891Z,0.90
2023-01-17T17:34:36.670Z,1.63
2023-01-17T17:37:06.891Z,1.87
2023-01-17T17:39:35.120Z,2.13
2023-01-17T17:42:05.370Z,1.77
2023-01-17T17:50:24.029Z,2.00
2023-01-17T17:52:52.278Z,1.50
2023-01-17T17:55:19.628Z,1.57
2023-01-17T17:57:46.930Z,1.53
2023-01-17T18:00:15.197Z,1.30
2023-01-17T18:02:42.622Z,1.10
2023-01-17T18:05:11.162Z,1.40
2023-01-17T18:07:40.426Z,1.27
2023-01-17T18:12:50.315Z,1.30
2023-01-17T18:15:18.111Z,0.90
2023-01-17T18:17:46.918Z,3.30
2023-01-17T18:20:15.398Z,1.40
2023-01-17T18:22:43.539Z,1.20
2023-01-17T18:25:12.741Z,1.50
2023-01-17T18:27:44.433Z,1.43
2023-01-17T18:32:56.248Z,1.37
2023-01-17T18:35:23.887Z,1.53
2023-01-17T18:37:56.228Z,1.40
2023-01-17T18:40:26.180Z,1.10
2023-01-17T18:42:54.366Z,2.50
2023-01-17T18:45:22.308Z,1.00
2023-01-17T18:47:52.323Z,1.00
2023-01-17T18:50:23.092Z,1.40
2023-01-17T18:52:51.367Z,0.60
2023-01-17T19:00:24.895Z,1.03
2023-01-17T19:02:53.641Z,1.63
2023-01-17T19:05:24.650Z,1.27
2023-01-17T19:07:52.867Z,1.23
2023-01-17T19:10:27.376Z,1.53
2023-01-17T19:12:57.675Z,1.63
2023-01-17T19:15:28.442Z,1.33
2023-01-17T19:26:00.177Z,1.43
2023-01-17T19:28:28.428Z,1.50
2023-01-17T19:31:04.680Z,1.17
2023-01-17T19:33:36.050Z,1.20
2023-01-17T19:36:09.925Z,1.00
2023-01-17T19:38:38.666Z,1.10
2023-01-17T19:41:15.146Z,1.10
2023-01-17T19:50:36.647Z,1.13
2023-01-17T19:53:05.588Z,1.20
2023-01-17T19:55:41.387Z,1.17
2023-01-17T19:58:14.404Z,1.40
2023-01-17T20:00:46.797Z,1.23
2023-01-17T20:03:20.608Z,1.90
2023-01-17T20:06:01.317Z,1.57
2023-01-17T20:11:28.789Z,1.20
2023-01-17T20:13:57.711Z,1.83
2023-01-17T20:16:30.691Z,1.67
2023-01-17T20:19:03.657Z,1.83
2023-01-17T20:21:36.528Z,1.60
2023-01-17T20:24:08.510Z,2.13
2023-01-17T20:26:38.086Z,2.07
2023-01-17T20:34:20.230Z,2.17
2023-01-17T20:36:51.287Z,2.20
2023-01-17T20:39:23.391Z,2.33
2023-01-17T20:41:55.026Z,2.47
2023-01-17T20:44:23.812Z,2.67
2023-01-17T20:46:51.453Z,2.93
2023-01-17T20:49:21.808Z,2.30
2023-01-17T20:56:55.057Z,3.77
2023-01-17T20:59:23.028Z,3.57
2023-01-17T21:01:51.361Z,2.83
2023-01-17T21:04:25.248Z,2.83
2023-01-17T21:06:54.869Z,3.10
2023-01-17T21:09:23.207Z,3.37
2023-01-17T21:11:52.384Z,3.20
2023-01-17T21:17:34.892Z,2.57
2023-01-17T21:20:08.293Z,2.60
2023-01-17T21:22:37.885Z,3.50
2023-01-17T21:25:09.458Z,3.40
2023-01-17T21:27:37.871Z,2.67
2023-01-17T21:30:06.526Z,2.93
2023-01-17T21:32:35.604Z,3.73
2023-01-17T21:43:03.794Z,3.00
2023-01-17T21:45:33.317Z,3.40
2023-01-17T21:48:02.874Z,3.57
2023-01-17T21:50:33.594Z,2.73
2023-01-17T21:53:02.311Z,2.87
2023-01-17T21:55:48.152Z,4.83
2023-01-17T21:58:36.089Z,4.10
2023-01-17T22:06:56.077Z,4.00
2023-01-17T22:09:23.571Z,3.57
2023-01-17T22:11:51.351Z,3.93
2023-01-17T22:14:19.342Z,3.53
2023-01-17T22:16:48.160Z,4.13
2023-01-17T22:19:16.106Z,4.20
2023-01-17T22:21:43.763Z,3.73
2023-01-17T22:32:22.334Z,4.00
2023-01-17T22:34:50.271Z,4.33
2023-01-17T22:37:18.104Z,4.60
2023-01-17T22:39:48.589Z,4.07
2023-01-17T22:42:16.135Z,4.60
2023-01-17T22:44:43.513Z,4.67
2023-01-17T22:47:11.161Z,3.97
2023-01-17T22:49:39.639Z,4.03
2023-01-17T23:00:36.527Z,4.27
2023-01-17T23:03:05.746Z,3.33
2023-01-17T23:05:33.318Z,4.57
2023-01-17T23:08:02.269Z,3.63
2023-01-17T23:10:47.896Z,4.00
2023-01-17T23:13:15.321Z,4.50
2023-01-17T23:16:01.429Z,4.47
2023-01-17T23:18:46.735Z,3.73
2023-01-17T23:29:03.123Z,3.80
2023-01-17T23:31:30.589Z,3.90
2023-01-17T23:33:57.980Z,3.83
2023-01-17T23:36:25.208Z,3.53
2023-01-17T23:38:53.039Z,4.20
2023-01-17T23:41:38.216Z,4.33
2023-01-17T23:44:06.367Z,4.13
2023-01-17T23:49:18.050Z,3.70
2023-01-17T23:51:46.738Z,3.60
2023-01-17T23:54:14.290Z,3.80
2023-01-17T23:56:41.477Z,5.50
2023-01-17T23:59:08.739Z,4.87
